Time;durP1;ratioP1;P1;durP2;ratioP2;P2;SDS_P1;SDS_P2;PMS_P1;PMS_P2;Temp;Humidity;BMP_temperature;BMP_pressure;BME280_temperature;BME280_humidity;BME280_pressure;Samples;Min_cycle;Max_cycle;Signal;HPM_P1;HPM_P2
2024/04/19 00:02:36;;;;;;;2.40;1.80;;;;;;;8.41;65.43;99551.59;6581300;27;20009;-79
2024/04/19 00:05:41;;;;;;;2.43;1.53;;;;;;;8.43;66.72;99561.91;6579962;26;20014;-79
2024/04/19 00:08:42;;;;;;;3.35;1.88;;;;;;;8.35;65.10;99558.91;6580688;27;20027;-87
2024/04/19 00:11:43;;;;;;;4.50;1.77;;;;;;;8.36;67.65;99540.63;6552986;27;20017;-88
2024/04/19 00:14:44;;;;;;;2.63;1.90;;;;;;;8.44;67.72;99554.03;6554826;27;20441;-87
2024/04/19 00:17:45;;;;;;;4.00;2.15;;;;;;;8.22;65.18;99556.19;6582330;26;19999;-87
2024/04/19 00:20:47;;;;;;;3.03;2.27;;;;;;;8.23;66.89;99550.06;6582064;27;20013;-87
2024/04/19 00:23:48;;;;;;;3.53;1.85;;;;;;;7.94;67.19;99554.38;6555298;27;20375;-88
2024/04/19 00:26:49;;;;;;;3.00;2.13;;;;;;;7.84;67.34;99562.72;6552920;27;20360;-87
2024/04/19 00:29:50;;;;;;;5.63;2.30;;;;;;;8.00;67.89;99560.03;6593818;27;20038;-78
2024/04/19 00:32:51;;;;;;;2.47;2.10;;;;;;;8.16;69.73;99562.59;6593174;26;20452;-79
2024/04/19 00:35:52;;;;;;;3.65;2.03;;;;;;;7.98;69.55;99556.69;6589160;26;20006;-79
2024/04/19 00:38:54;;;;;;;4.22;2.15;;;;;;;7.95;69.77;99543.91;6579718;26;20073;-78
2024/04/19 00:41:56;;;;;;;3.25;2.00;;;;;;;7.89;70.25;99523.47;6577924;27;20010;-79
2024/04/19 00:44:57;;;;;;;4.45;1.95;;;;;;;7.98;69.03;99545.47;6589701;26;20456;-78
2024/04/19 00:48:00;;;;;;;2.88;1.75;;;;;;;7.69;69.47;99554.94;6593833;27;20014;-87
2024/04/19 00:51:06;;;;;;;3.08;2.00;;;;;;;7.91;69.36;99550.19;6594336;27;20402;-87
2024/04/19 00:54:08;;;;;;;3.22;2.00;;;;;;;7.95;68.77;99541.28;6594647;26;19998;-87
2024/04/19 00:57:09;;;;;;;2.67;2.00;;;;;;;7.74;68.02;99548.56;6593966;26;20084;-78
2024/04/19 01:00:14;;;;;;;2.37;1.67;;;;;;;7.75;68.42;99545.03;6595325;26;19998;-79
2024/04/19 01:03:15;;;;;;;4.20;1.90;;;;;;;7.76;68.35;99544.13;6595155;26;20012;-79
2024/04/19 01:06:19;;;;;;;4.07;2.40;;;;;;;7.61;67.76;99553.59;6593560;26;20001;-79
2024/04/19 01:09:21;;;;;;;3.13;1.85;;;;;;;7.63;67.50;99541.38;6622069;26;20005;-79
2024/04/19 01:12:21;;;;;;;3.72;1.73;;;;;;;7.52;67.48;99542.94;6594447;26;20012;-79
2024/04/19 01:15:23;;;;;;;2.38;1.90;;;;;;;7.41;68.40;99556.47;6622212;26;20457;-87
2024/04/19 01:18:25;;;;;;;3.70;2.20;;;;;;;7.30;67.67;99545.88;6624004;26;20005;-87
2024/04/19 01:21:29;;;;;;;2.65;1.90;;;;;;;7.25;67.74;99541.78;6621942;26;20005;-79
2024/04/19 01:24:46;;;;;;;1.90;1.58;;;;;;;7.33;67.42;99546.56;6593579;27;20009;-80
2024/04/19 01:27:47;;;;;;;2.15;1.77;;;;;;;7.16;67.04;99533.66;6622385;26;20394;-87
2024/04/19 01:30:48;;;;;;;3.90;1.92;;;;;;;7.14;66.97;99549.31;6623414;26;20013;-87
2024/04/19 01:33:50;;;;;;;3.08;1.88;;;;;;;7.19;67.63;99552.50;6621765;26;20037;-79
2024/04/19 01:36:50;;;;;;;3.15;1.88;;;;;;;7.05;67.68;99563.63;6622913;26;20001;-79
2024/04/19 01:39:52;;;;;;;2.25;1.85;;;;;;;7.00;68.91;99554.41;6621728;26;19993;-79
2024/04/19 01:42:53;;;;;;;2.50;1.77;;;;;;;6.90;69.82;99545.44;6620561;26;20448;-79
2024/04/19 01:45:55;;;;;;;2.93;2.10;;;;;;;6.73;70.67;99547.19;6620675;26;20321;-86
2024/04/19 01:48:56;;;;;;;3.33;1.83;;;;;;;6.92;70.77;99565.22;6595364;26;20016;-87
2024/04/19 01:51:57;;;;;;;4.03;2.17;;;;;;;6.77;71.76;99566.84;6621389;26;19998;-79
2024/04/19 01:54:58;;;;;;;3.90;1.73;;;;;;;6.84;72.07;99552.66;6621544;26;20013;-79
2024/04/19 01:57:59;;;;;;;2.00;1.80;;;;;;;6.91;72.18;99557.50;6593210;27;20002;-87
2024/04/19 02:01:00;;;;;;;3.78;2.03;;;;;;;7.04;72.93;99580.13;6622792;26;20016;-86
2024/04/19 02:04:04;;;;;;;2.95;1.98;;;;;;;6.89;72.25;99572.31;6622546;26;20328;-87
2024/04/19 02:07:05;;;;;;;3.38;2.40;;;;;;;7.00;72.21;99578.63;6622113;26;20020;-79
2024/04/19 02:10:08;;;;;;;3.53;2.35;;;;;;;7.09;72.99;99576.44;6592846;26;19998;-79
2024/04/19 02:13:09;;;;;;;2.67;1.90;;;;;;;7.06;72.92;99575.69;6621183;26;20076;-79
2024/04/19 02:16:11;;;;;;;3.60;2.20;;;;;;;7.10;73.17;99591.91;6621072;26;20479;-79
2024/04/19 02:19:12;;;;;;;4.90;2.25;;;;;;;6.98;73.84;99589.97;6594027;26;19998;-80
2024/04/19 02:22:13;;;;;;;3.78;2.25;;;;;;;6.96;74.10;99592.66;6593163;26;20012;-87
2024/04/19 02:25:14;;;;;;;4.72;2.03;;;;;;;6.98;73.48;99601.19;6623107;26;20008;-88
2024/04/19 02:31:35;;;;;;;3.22;2.10;;;;;;;6.98;74.87;99613.31;6594670;26;19998;-79
2024/04/19 02:34:36;;;;;;;3.85;2.35;;;;;;;6.98;76.05;99618.50;6620843;26;20357;-79
2024/04/19 02:37:40;;;;;;;3.78;2.30;;;;;;;6.90;77.43;99616.34;6620641;26;20009;-79
2024/04/19 02:40:41;;;;;;;3.25;2.25;;;;;;;6.79;78.81;99629.84;6620782;26;20418;-79
2024/04/19 02:43:46;;;;;;;4.03;2.35;;;;;;;6.75;80.75;99630.91;6620506;26;20468;-78
2024/04/19 02:46:50;;;;;;;2.55;2.03;;;;;;;6.48;81.87;99640.13;6620726;26;20006;-85
2024/04/19 02:49:51;;;;;;;2.25;2.05;;;;;;;6.52;82.64;99641.63;6621200;26;20526;-86
2024/04/19 02:52:53;;;;;;;3.60;2.25;;;;;;;6.72;82.96;99651.84;6621401;26;20008;-88
2024/04/19 02:55:53;;;;;;;4.20;2.10;;;;;;;6.48;84.11;99653.91;6622575;26;20045;-86
2024/04/19 02:58:54;;;;;;;3.78;2.80;;;;;;;6.65;85.75;99648.72;6592797;27;20024;-88
2024/04/19 03:01:57;;;;;;;7.47;2.42;;;;;;;6.72;87.29;99638.03;6621237;26;20033;-87
2024/04/19 03:04:58;;;;;;;3.88;2.70;;;;;;;6.93;89.39;99656.81;6620342;26;20008;-79
2024/04/19 03:08:02;;;;;;;5.30;2.10;;;;;;;6.81;93.65;99666.06;6594557;26;20075;-85
2024/04/19 03:11:06;;;;;;;4.78;2.28;;;;;;;6.63;97.01;99662.66;6593380;26;20009;-88
2024/04/19 03:14:08;;;;;;;3.50;2.30;;;;;;;6.66;100.00;99657.34;6621007;26;20332;-88
2024/04/19 03:17:09;;;;;;;2.90;2.15;;;;;;;6.65;100.00;99658.22;6620949;26;20013;-86
2024/04/19 03:20:11;;;;;;;5.80;2.60;;;;;;;6.79;100.00;99652.34;6601149;26;20021;-86
2024/04/19 03:23:11;;;;;;;4.55;2.92;;;;;;;6.77;100.00;99655.00;6549221;27;19999;-86
2024/04/19 03:26:16;;;;;;;5.57;2.95;;;;;;;6.63;100.00;99641.91;6549304;27;20472;-86
2024/04/19 03:29:18;;;;;;;4.05;2.30;;;;;;;6.63;100.00;99649.69;6550859;27;20002;-86
2024/04/19 03:32:22;;;;;;;6.05;2.92;;;;;;;6.52;100.00;99633.88;6550938;27;20009;-86
2024/04/19 03:35:24;;;;;;;3.63;2.15;;;;;;;6.34;100.00;99644.25;6577818;27;20006;-86
2024/04/19 03:38:25;;;;;;;3.20;2.50;;;;;;;6.48;100.00;99646.13;6578032;27;20002;-85
2024/04/19 03:41:32;;;;;;;3.05;2.10;;;;;;;6.30;100.00;99650.50;6579131;27;20080;-86
2024/04/19 03:47:54;;;;;;;4.20;2.90;;;;;;;6.20;100.00;99651.88;6549678;27;20084;-81
2024/04/19 03:50:54;;;;;;;20.15;8.38;;;;;;;6.17;100.00;99645.06;6578259;27;20460;-85
2024/04/19 03:53:56;;;;;;;8.25;4.70;;;;;;;6.33;100.00;99647.75;6552932;27;20046;-81
2024/04/19 03:56:57;;;;;;;2.25;2.00;;;;;;;6.23;100.00;99641.34;6590248;26;20006;-86
2024/04/19 03:59:58;;;;;;;3.30;2.40;;;;;;;6.12;100.00;99643.66;6592797;27;20080;-86
2024/04/19 04:02:59;;;;;;;3.47;2.40;;;;;;;6.02;100.00;99646.66;6592778;27;20002;-85
2024/04/19 04:06:01;;;;;;;4.15;2.70;;;;;;;6.07;100.00;99649.03;6592616;27;20013;-85
2024/04/19 04:09:02;;;;;;;6.00;3.10;;;;;;;6.10;100.00;99659.25;6593842;27;20001;-86
2024/04/19 04:12:03;;;;;;;7.68;2.78;;;;;;;6.02;100.00;99651.03;6596609;27;20373;-86
2024/04/19 04:15:05;;;;;;;3.80;2.75;;;;;;;6.01;100.00;99668.31;6596557;27;20075;-85
2024/04/19 04:18:07;;;;;;;3.83;2.47;;;;;;;6.17;100.00;99676.16;6596755;27;20404;-85
2024/04/19 04:21:10;;;;;;;6.10;2.50;;;;;;;6.19;100.00;99683.88;6597064;27;20071;-84
2024/04/19 04:24:11;;;;;;;5.25;2.80;;;;;;;6.32;100.00;99674.59;6597017;27;19997;-85
2024/04/19 04:27:15;;;;;;;3.25;2.25;;;;;;;6.44;100.00;99683.50;6596501;26;20005;-86
2024/04/19 04:30:16;;;;;;;3.58;2.70;;;;;;;6.48;100.00;99690.19;6598233;26;20008;-85
2024/04/19 04:33:20;;;;;;;7.43;2.95;;;;;;;6.37;100.00;99688.16;6596593;27;20465;-85
2024/04/19 04:36:21;;;;;;;4.00;3.03;;;;;;;6.37;100.00;99706.28;6598156;26;19998;-85
2024/04/19 04:39:23;;;;;;;5.15;2.95;;;;;;;6.38;100.00;99710.56;6596515;27;20008;-85
2024/04/19 04:42:23;;;;;;;6.47;3.30;;;;;;;6.42;100.00;99713.81;6594510;27;20001;-85
2024/04/19 04:45:25;;;;;;;7.85;5.45;;;;;;;6.41;100.00;99701.78;6575694;26;20007;-86
2024/04/19 04:48:26;;;;;;;11.82;8.77;;;;;;;6.60;100.00;99722.44;6579965;26;20369;-86
2024/04/19 04:51:31;;;;;;;9.77;5.72;;;;;;;6.73;100.00;99718.31;6612235;26;19998;-85
2024/04/19 04:54:32;;;;;;;6.20;3.87;;;;;;;6.50;100.00;99710.88;6595863;26;20002;-85
2024/04/19 04:57:33;;;;;;;7.20;4.45;;;;;;;6.68;100.00;99724.66;6595973;26;20251;-85
2024/04/19 05:00:35;;;;;;;7.82;3.15;;;;;;;6.56;100.00;99726.94;6593793;27;20005;-84
2024/04/19 05:03:37;;;;;;;5.28;3.13;;;;;;;6.73;100.00;99728.69;6593962;27;19998;-87
2024/04/19 05:06:38;;;;;;;5.95;4.10;;;;;;;6.99;100.00;99722.19;6593520;26;20044;-85
2024/04/19 05:09:39;;;;;;;8.55;3.92;;;;;;;7.03;100.00;99730.66;6595599;26;20453;-86
2024/04/19 05:12:40;;;;;;;7.22;3.88;;;;;;;7.12;100.00;99729.34;6592714;26;20076;-85
2024/04/19 05:15:43;;;;;;;5.50;3.90;;;;;;;7.21;100.00;99731.47;6593562;26;20002;-86
2024/04/19 05:18:49;;;;;;;6.72;3.88;;;;;;;7.35;100.00;99739.38;6621371;26;20006;-84
2024/04/19 05:21:50;;;;;;;5.95;3.92;;;;;;;7.37;100.00;99749.66;6622143;26;20008;-82
2024/04/19 05:24:52;;;;;;;5.90;3.63;;;;;;;7.28;100.00;99732.81;6595463;26;20057;-82
2024/04/19 05:27:53;;;;;;;4.68;3.13;;;;;;;7.20;100.00;99722.00;6595149;26;20472;-84
2024/04/19 05:30:54;;;;;;;5.45;3.20;;;;;;;7.43;100.00;99747.59;6590081;26;20518;-84
2024/04/19 05:33:56;;;;;;;4.32;3.15;;;;;;;7.53;100.00;99739.31;6590076;26;20002;-84
2024/04/19 05:36:57;;;;;;;4.78;3.22;;;;;;;7.72;100.00;99750.41;6582612;27;20480;-82
2024/04/19 05:39:58;;;;;;;5.28;3.17;;;;;;;7.81;100.00;99751.66;6553983;27;20013;-82
2024/04/19 05:43:02;;;;;;;5.00;3.30;;;;;;;7.75;100.00;99760.59;6552263;27;19998;-81
2024/04/19 05:46:04;;;;;;;4.90;3.58;;;;;;;7.71;100.00;99742.69;6552051;27;20065;-85
2024/04/19 05:49:05;;;;;;;6.85;3.47;;;;;;;7.76;100.00;99751.03;6580638;27;20081;-85
2024/04/19 05:52:07;;;;;;;4.57;3.17;;;;;;;7.73;100.00;99761.59;6580863;27;20464;-85
2024/04/19 05:55:08;;;;;;;4.50;3.20;;;;;;;7.85;100.00;99774.75;6552809;27;20003;-85
2024/04/19 05:58:11;;;;;;;6.82;3.50;;;;;;;7.93;100.00;99773.50;6580838;27;20002;-85
2024/04/19 06:01:12;;;;;;;7.05;4.10;;;;;;;7.97;100.00;99777.59;6579635;27;20464;-82
2024/04/19 06:04:14;;;;;;;21.42;5.20;;;;;;;7.98;100.00;99779.28;6578482;26;20467;-83
2024/04/19 06:07:16;;;;;;;11.07;6.32;;;;;;;7.87;100.00;99783.31;6579434;27;20332;-82
2024/04/19 06:10:17;;;;;;;15.32;6.30;;;;;;;8.10;100.00;99783.00;6551915;27;20014;-85
2024/04/19 06:13:20;;;;;;;6.38;4.05;;;;;;;8.31;100.00;99779.19;6578768;27;20072;-86
2024/04/19 06:16:22;;;;;;;6.68;3.58;;;;;;;8.34;100.00;99758.22;6553240;27;19998;-86
2024/04/19 06:19:23;;;;;;;5.43;3.47;;;;;;;8.02;100.00;99773.00;6553210;27;20006;-86
2024/04/19 06:22:24;;;;;;;5.50;3.60;;;;;;;7.83;100.00;99775.78;6550392;27;20460;-81
2024/04/19 06:25:25;;;;;;;6.45;3.63;;;;;;;8.05;100.00;99783.22;6579000;27;20038;-88
2024/04/19 06:28:27;;;;;;;4.18;3.13;;;;;;;7.75;100.00;99783.16;6549746;27;20077;-84
2024/04/19 06:31:28;;;;;;;5.90;3.07;;;;;;;7.88;100.00;99761.59;6550534;27;20021;-84
2024/04/19 06:34:30;;;;;;;3.95;3.00;;;;;;;7.86;99.28;99778.19;6552137;27;20249;-81
2024/04/19 06:37:31;;;;;;;7.13;2.65;;;;;;;7.44;98.64;99785.59;6578191;27;20003;-83
2024/04/19 06:40:32;;;;;;;5.22;3.03;;;;;;;7.75;96.66;99791.75;6549613;27;20002;-82
2024/04/19 06:43:33;;;;;;;4.47;3.03;;;;;;;7.97;92.98;99783.66;6551421;27;20002;-83
2024/04/19 06:46:34;;;;;;;5.03;3.22;;;;;;;8.02;94.09;99792.03;6549519;27;20460;-82
2024/04/19 06:49:35;;;;;;;6.00;2.65;;;;;;;7.81;91.61;99791.44;6549512;27;20007;-84
2024/04/19 06:52:39;;;;;;;4.63;2.72;;;;;;;8.23;90.81;99789.16;6578098;27;20002;-84
2024/04/19 06:55:39;;;;;;;4.30;3.00;;;;;;;8.12;89.55;99783.75;6578429;27;20030;-82
2024/04/19 06:58:47;;;;;;;7.22;3.33;;;;;;;8.23;90.27;99781.38;6551195;27;20441;-85
2024/04/19 07:01:48;;;;;;;5.18;2.83;;;;;;;8.34;90.60;99740.03;6578176;26;20034;-87
2024/04/19 07:04:52;;;;;;;5.90;2.65;;;;;;;8.69;88.72;99773.63;6577785;27;20476;-89
2024/04/19 07:07:53;;;;;;;3.75;2.83;;;;;;;8.73;88.22;99777.72;6577901;26;19998;-86
2024/04/19 07:10:53;;;;;;;5.93;3.40;;;;;;;8.55;85.92;99769.19;6549267;27;20487;-88
2024/04/19 07:13:55;;;;;;;5.72;3.28;;;;;;;8.65;86.36;99756.53;6549362;27;20053;-89
2024/04/19 07:16:56;;;;;;;8.60;3.28;;;;;;;8.95;87.36;99751.28;6549398;27;20006;-89
2024/04/19 07:19:57;;;;;;;3.88;3.13;;;;;;;9.59;85.95;99766.53;6578305;26;20014;-89
2024/04/19 07:22:59;;;;;;;5.47;3.65;;;;;;;9.30;83.43;99774.34;6549888;27;20443;-89
2024/04/19 07:26:02;;;;;;;4.63;2.90;;;;;;;9.70;82.37;99777.16;6550637;27;20002;-86
2024/04/19 07:29:09;;;;;;;5.07;2.90;;;;;;;9.80;82.14;99774.78;6550917;27;20006;-87
2024/04/19 07:32:13;;;;;;;4.80;3.10;;;;;;;9.92;83.73;99781.84;6549348;27;20006;-87
2024/04/19 07:35:16;;;;;;;3.83;2.67;;;;;;;9.86;79.31;99766.59;6551109;27;20026;-87
2024/04/19 07:38:17;;;;;;;4.00;2.92;;;;;;;10.09;78.27;99778.22;6550287;27;20006;-82
2024/04/19 07:41:18;;;;;;;5.97;3.33;;;;;;;9.81;76.91;99776.47;6576874;27;20081;-83
2024/04/19 07:44:20;;;;;;;4.25;2.72;;;;;;;9.63;77.34;99781.88;6551622;27;19999;-84
2024/04/19 07:47:20;;;;;;;6.07;2.95;;;;;;;9.08;77.56;99780.84;6582854;27;20010;-86
2024/04/19 07:50:24;;;;;;;6.13;3.17;;;;;;;9.27;78.76;99778.00;6580928;27;20042;-85
2024/04/19 07:53:25;;;;;;;3.55;2.75;;;;;;;9.26;78.36;99791.09;6582200;27;19999;-86
2024/04/19 07:56:30;;;;;;;4.17;3.13;;;;;;;10.07;82.99;99790.50;6582181;27;20430;-86
2024/04/19 07:59:34;;;;;;;4.75;3.10;;;;;;;9.93;77.47;99769.69;6556374;27;20010;-85
2024/04/19 08:02:35;;;;;;;7.53;3.08;;;;;;;10.35;79.00;99786.16;6582057;27;19999;-85
2024/04/19 08:05:37;;;;;;;6.63;2.42;;;;;;;10.46;77.71;99787.16;6581450;27;20014;-85
2024/04/19 08:08:38;;;;;;;4.03;2.40;;;;;;;10.46;74.52;99774.09;6554001;27;19998;-84
2024/04/19 08:11:39;;;;;;;7.35;2.78;;;;;;;10.75;72.76;99771.34;6554651;27;20485;-83
2024/04/19 08:14:40;;;;;;;4.90;2.17;;;;;;;10.65;73.38;99760.69;6555816;27;19995;-84
2024/04/19 08:17:41;;;;;;;4.10;2.60;;;;;;;10.84;68.33;99769.91;6555896;27;20006;-85
2024/04/19 08:20:44;;;;;;;3.73;2.13;;;;;;;11.46;73.82;99766.56;6582607;27;20002;-83
2024/04/19 08:23:46;;;;;;;3.60;2.20;;;;;;;11.08;71.41;99746.53;6555798;27;20006;-83
2024/04/19 08:26:47;;;;;;;3.13;2.08;;;;;;;10.87;69.53;99754.88;6580853;27;19999;-82
2024/04/19 08:29:48;;;;;;;2.60;2.10;;;;;;;10.74;69.94;99758.41;6580753;26;20009;-85
2024/04/19 08:32:49;;;;;;;2.63;2.20;;;;;;;10.60;67.95;99752.31;6552179;27;20007;-83
2024/04/19 08:35:59;;;;;;;2.92;2.15;;;;;;;11.14;68.90;99756.56;6553932;27;20009;-82
2024/04/19 08:39:00;;;;;;;3.63;2.10;;;;;;;11.34;65.94;99755.19;6553965;27;20010;-83
2024/04/19 08:42:08;;;;;;;2.17;1.60;;;;;;;11.18;67.82;99765.88;6554233;27;20076;-83
2024/04/19 08:45:13;;;;;;;6.03;1.90;;;;;;;10.89;68.50;99750.41;6553491;27;19998;-81
2024/04/19 08:48:15;;;;;;;5.30;2.10;;;;;;;11.35;66.08;99756.03;6553212;27;20017;-81
2024/04/19 08:51:18;;;;;;;2.77;2.10;;;;;;;12.17;68.55;99754.63;6581789;27;20026;-82
2024/04/19 08:54:21;;;;;;;3.92;2.58;;;;;;;12.94;68.09;99753.34;6580780;27;19999;-82
2024/04/19 08:57:26;;;;;;;3.03;2.20;;;;;;;13.45;65.61;99743.28;6553599;27;20340;-83
2024/04/19 09:00:27;;;;;;;2.75;1.98;;;;;;;12.80;61.60;99738.66;6555307;27;19998;-83
2024/04/19 09:03:30;;;;;;;3.00;1.73;;;;;;;12.63;63.26;99751.22;6581802;27;20022;-83
2024/04/19 09:06:31;;;;;;;1.98;1.77;;;;;;;12.13;61.26;99740.09;6554811;27;20445;-82
2024/04/19 09:09:34;;;;;;;2.55;1.95;;;;;;;11.48;61.98;99730.72;6554887;27;20065;-82
2024/04/19 09:12:35;;;;;;;2.63;1.73;;;;;;;11.00;60.36;99741.00;6581401;27;19998;-83
2024/04/19 09:15:38;;;;;;;3.13;2.03;;;;;;;10.94;63.78;99737.03;6552529;27;20017;-83
2024/04/19 09:18:39;;;;;;;2.17;1.60;;;;;;;10.79;62.73;99732.81;6581130;27;20034;-82
2024/04/19 09:21:44;;;;;;;3.70;1.80;;;;;;;11.06;67.47;99737.97;6553949;27;20006;-83
2024/04/19 09:24:52;;;;;;;2.72;1.90;;;;;;;11.06;63.91;99736.19;6579577;26;20221;-89
2024/04/19 09:27:55;;;;;;;2.92;2.00;;;;;;;10.53;63.58;99743.22;6552761;27;20483;-88
2024/04/19 09:30:59;;;;;;;3.50;1.90;;;;;;;10.66;63.88;99722.38;6579408;27;20568;-88
2024/04/19 09:34:00;;;;;;;2.90;1.85;;;;;;;10.65;64.33;99720.72;6579653;27;20370;-87
2024/04/19 09:37:04;;;;;;;2.95;1.73;;;;;;;10.87;65.85;99741.84;6579595;27;20003;-89
2024/04/19 09:40:06;;;;;;;2.53;1.60;;;;;;;11.16;64.88;99746.84;6579520;26;20010;-88
2024/04/19 09:43:10;;;;;;;2.47;1.83;;;;;;;11.51;64.57;99746.19;6580150;27;20018;-82
2024/04/19 09:46:13;;;;;;;2.33;1.65;;;;;;;11.65;63.24;99740.00;6580313;26;20006;-82
2024/04/19 09:49:16;;;;;;;1.70;1.50;;;;;;;11.34;59.29;99738.69;6580221;26;20043;-83
2024/04/19 09:52:22;;;;;;;;;;;;;;;11.49;63.03;99735.03;6580774;27;20010;-82
2024/04/19 09:55:30;;;;;;;131.90;84.18;;;;;;;11.44;60.41;99727.47;6550540;27;19955;-82
2024/04/19 09:58:34;;;;;;;10.73;8.32;;;;;;;11.43;58.61;99733.66;6580137;26;20415;-82
2024/04/19 10:01:38;;;;;;;2.80;1.83;;;;;;;11.72;64.19;99722.13;6553448;27;19998;-82
2024/04/19 10:04:40;;;;;;;4.07;1.83;;;;;;;11.78;59.29;99721.69;6551675;27;20010;-83
2024/04/19 10:07:43;;;;;;;7.43;2.97;;;;;;;12.72;59.99;99731.38;6550401;27;20006;-82
2024/04/19 10:10:44;;;;;;;3.90;2.67;;;;;;;14.08;56.05;99719.97;6579963;26;20329;-83
2024/04/19 10:13:45;;;;;;;3.57;2.67;;;;;;;13.32;54.81;99713.75;6579421;27;20010;-82
2024/04/19 10:16:47;;;;;;;2.20;1.90;;;;;;;13.84;57.25;99700.94;6552861;27;20265;-83
2024/04/19 10:19:50;;;;;;;4.05;3.55;;;;;;;13.56;55.82;99711.00;6579011;26;20449;-82
2024/04/19 10:22:52;;;;;;;3.75;2.03;;;;;;;12.70;52.53;99715.81;6550392;27;20013;-90
2024/04/19 10:25:57;;;;;;;2.80;1.95;;;;;;;12.73;55.86;99706.88;6578882;26;20002;-90
2024/04/19 10:29:00;;;;;;;3.15;1.92;;;;;;;13.14;55.06;99716.00;6579235;27;20578;-90
2024/04/19 10:32:04;;;;;;;2.83;2.10;;;;;;;13.31;53.18;99709.47;6578731;27;20007;-82
2024/04/19 10:35:11;;;;;;;2.25;2.05;;;;;;;13.97;52.29;99704.25;6550446;27;20461;-82
2024/04/19 10:38:15;;;;;;;2.83;1.77;;;;;;;13.01;54.28;99696.91;6550524;27;20038;-91
2024/04/19 10:41:17;;;;;;;6.60;2.30;;;;;;;12.47;52.54;99696.56;6578517;26;20472;-88
2024/04/19 10:44:19;;;;;;;3.08;2.00;;;;;;;12.99;52.52;99685.72;6551750;27;20376;-87
2024/04/19 10:47:24;;;;;;;3.22;2.15;;;;;;;13.42;55.41;99687.66;6579065;26;19999;-88
2024/04/19 10:50:28;;;;;;;2.50;2.10;;;;;;;14.58;52.56;99687.06;6578548;27;20336;-81
2024/04/19 10:53:29;;;;;;;2.45;2.03;;;;;;;15.20;53.23;99680.91;6578429;26;20013;-80
2024/04/19 10:56:30;;;;;;;3.92;2.35;;;;;;;15.73;48.19;99671.97;6549777;27;20006;-82
2024/04/19 10:59:31;;;;;;;3.67;2.60;;;;;;;15.72;48.76;99672.91;6551526;27;20046;-82
2024/04/19 11:02:33;;;;;;;4.07;2.20;;;;;;;15.47;47.05;99661.06;6578377;26;20208;-83
2024/04/19 11:05:36;;;;;;;2.60;2.00;;;;;;;15.03;45.07;99647.34;6578247;27;20265;-90
2024/04/19 11:08:37;;;;;;;3.70;2.38;;;;;;;15.51;50.01;99657.22;6577978;26;20002;-90
2024/04/19 11:11:38;;;;;;;6.90;3.40;;;;;;;15.75;49.54;99650.75;6551102;27;20026;-87
2024/04/19 11:14:39;;;;;;;2.30;2.00;;;;;;;15.99;50.96;99653.84;6578650;27;20077;-87
2024/04/19 11:17:40;;;;;;;3.85;2.03;;;;;;;16.19;49.45;99644.16;6577490;27;20105;-82
2024/04/19 11:20:41;;;;;;;2.13;1.75;;;;;;;14.70;44.17;99644.00;6577831;26;20445;-81
2024/04/19 11:23:42;;;;;;;4.17;2.57;;;;;;;15.64;49.54;99642.00;6577728;27;20007;-82
2024/04/19 11:26:43;;;;;;;4.75;2.47;;;;;;;15.73;47.73;99629.03;6549275;27;20006;-90
2024/04/19 11:29:45;;;;;;;1.83;1.60;;;;;;;16.31;47.73;99629.88;6577149;27;20441;-89
2024/04/19 11:32:50;;;;;;;12.65;6.07;;;;;;;16.07;47.30;99625.03;6577706;27;20038;-90
2024/04/19 11:35:53;;;;;;;2.72;2.15;;;;;;;15.38;47.06;99627.69;6578731;26;20034;-87
2024/04/19 11:38:55;;;;;;;6.95;3.63;;;;;;;14.67;47.52;99623.28;6578057;26;20002;-82
2024/04/19 11:41:57;;;;;;;7.72;2.63;;;;;;;14.68;47.67;99620.53;6574481;27;20056;-82
2024/04/19 11:44:58;;;;;;;7.18;3.30;;;;;;;14.99;48.42;99617.91;6591357;27;20038;-82
2024/04/19 11:47:59;;;;;;;6.25;2.90;;;;;;;14.63;46.03;99617.47;6590731;27;20009;-81
2024/04/19 11:51:00;;;;;;;2.97;2.13;;;;;;;14.13;46.14;99608.56;6591323;27;20012;-81
2024/04/19 11:54:04;;;;;;;2.58;1.55;;;;;;;14.24;47.90;99605.88;6591153;27;20001;-81
2024/04/19 11:57:06;;;;;;;3.47;1.85;;;;;;;13.68;48.08;99602.53;6591436;26;20025;-81
2024/04/19 12:00:08;;;;;;;2.80;1.70;;;;;;;13.57;48.33;99610.44;6592467;27;20026;-90
2024/04/19 12:03:12;;;;;;;3.15;1.95;;;;;;;13.49;48.37;99600.56;6592194;27;19994;-86
2024/04/19 12:06:14;;;;;;;2.90;2.10;;;;;;;14.26;49.04;99596.91;6591209;27;20439;-81
2024/04/19 12:09:15;;;;;;;2.58;1.70;;;;;;;15.45;45.23;99598.09;6592021;26;20372;-87
2024/04/19 12:12:19;;;;;;;7.68;4.07;;;;;;;15.51;41.85;99591.47;6591790;27;20352;-81
2024/04/19 12:15:20;;;;;;;3.53;2.30;;;;;;;15.25;46.28;99573.56;6591786;26;20364;-82
2024/04/19 12:18:21;;;;;;;3.45;1.98;;;;;;;15.70;42.34;99577.50;6590804;27;19998;-82
2024/04/19 12:21:23;;;;;;;2.80;2.05;;;;;;;16.15;43.84;99573.50;6592004;27;20448;-88
2024/04/19 12:24:24;;;;;;;2.08;1.55;;;;;;;15.91;42.49;99572.97;6590272;27;20456;-90
2024/04/19 12:27:28;;;;;;;1.83;1.70;;;;;;;15.73;41.43;99571.16;6590849;26;20496;-81
2024/04/19 12:30:29;;;;;;;3.20;2.03;;;;;;;16.31;42.81;99569.31;6592154;26;20265;-84
2024/04/19 12:33:30;;;;;;;4.15;2.45;;;;;;;16.44;41.91;99574.25;6594572;27;20006;-83
2024/04/19 12:36:30;;;;;;;5.35;2.58;;;;;;;16.69;39.41;99574.59;6594153;27;20011;-83
2024/04/19 12:39:32;;;;;;;2.00;1.52;;;;;;;16.75;38.07;99567.94;6595171;27;20030;-88
2024/04/19 12:42:33;;;;;;;4.72;1.75;;;;;;;16.41;36.55;99561.41;6595081;27;20009;-87
2024/04/19 12:45:33;;;;;;;2.08;1.30;;;;;;;16.55;38.84;99549.56;6594000;27;20002;-88
2024/04/19 12:48:35;;;;;;;5.60;2.17;;;;;;;16.28;39.95;99561.69;6594995;27;19998;-84
2024/04/19 12:51:36;;;;;;;2.47;1.70;;;;;;;16.23;38.64;99545.50;6595713;26;20002;-86
2024/04/19 12:54:37;;;;;;;4.90;2.60;;;;;;;16.30;37.96;99546.56;6623684;26;20314;-85
2024/04/19 12:57:38;;;;;;;2.65;1.83;;;;;;;16.38;39.19;99551.13;6594872;27;20499;-87
2024/04/19 13:00:39;;;;;;;3.53;1.50;;;;;;;15.63;39.49;99544.84;6572973;26;20081;-83
2024/04/19 13:03:40;;;;;;;2.13;1.40;;;;;;;14.87;38.65;99543.63;6591917;27;20013;-87
2024/04/19 13:06:44;;;;;;;1.95;1.20;;;;;;;13.58;40.52;99540.50;6593170;27;20337;-87
2024/04/19 13:09:44;;;;;;;2.65;1.77;;;;;;;13.16;40.97;99543.81;6594823;26;20006;-88
2024/04/19 13:12:45;;;;;;;1.52;1.13;;;;;;;13.57;42.96;99542.28;6601654;26;20006;-88
2024/04/19 13:15:47;;;;;;;3.10;2.00;;;;;;;14.90;43.50;99538.09;6595229;26;19998;-86
2024/04/19 13:18:48;;;;;;;14.67;3.30;;;;;;;15.48;41.36;99520.75;6586125;27;20519;-88
2024/04/19 13:21:49;;;;;;;4.75;2.20;;;;;;;15.77;41.51;99526.03;6551189;27;20010;-87
2024/04/19 13:24:51;;;;;;;2.43;1.47;;;;;;;15.82;39.25;99529.09;6579068;27;20006;-91
2024/04/19 13:27:55;;;;;;;3.73;1.70;;;;;;;16.06;40.92;99520.75;6584865;27;20507;-90
2024/04/19 13:30:56;;;;;;;3.13;1.63;;;;;;;16.29;39.89;99508.06;6622274;26;20013;-81
2024/04/19 13:33:57;;;;;;;3.95;1.38;;;;;;;16.58;39.38;99512.41;6594799;26;20010;-79
2024/04/19 13:36:58;;;;;;;2.60;1.40;;;;;;;16.61;39.53;99508.66;6621011;26;20610;-82
2024/04/19 13:40:00;;;;;;;2.78;1.80;;;;;;;15.85;40.61;99507.75;6621737;26;20034;-81
2024/04/19 13:43:00;;;;;;;3.30;1.80;;;;;;;15.37;39.03;99497.25;6622206;26;20356;-84
2024/04/19 13:46:03;;;;;;;1.38;1.27;;;;;;;14.90;40.28;99495.22;6621833;26;20327;-86
2024/04/19 13:49:03;;;;;;;;;;;;;;;15.43;40.52;99501.94;6593522;27;20012;-85
2024/04/19 13:52:04;;;;;;;5.40;3.30;;;;;;;15.29;41.84;99493.47;6593296;26;20361;-88
2024/04/19 13:55:07;;;;;;;7.93;3.00;;;;;;;15.36;41.21;99482.41;6617504;26;20017;-88
2024/04/19 13:58:09;;;;;;;6.57;3.00;;;;;;;15.20;43.07;99485.63;6588665;27;20072;-86
2024/04/19 14:01:15;;;;;;;3.05;2.53;;;;;;;15.08;43.29;99477.84;6593943;27;20001;-87
2024/04/19 14:04:16;;;;;;;8.80;3.38;;;;;;;15.08;43.19;99483.09;6594537;26;20013;-87
2024/04/19 14:07:18;;;;;;;5.63;3.30;;;;;;;15.23;45.00;99473.00;6593559;27;20002;-87
2024/04/19 14:10:21;;;;;;;3.30;2.50;;;;;;;15.05;41.41;99477.28;6595109;26;20009;-86
2024/04/19 14:13:22;;;;;;;3.65;2.88;;;;;;;14.93;41.34;99481.00;6593575;27;20465;-87
2024/04/19 14:16:25;;;;;;;5.13;3.13;;;;;;;14.95;41.81;99477.28;6594939;26;20001;-84
2024/04/19 14:19:27;;;;;;;5.95;3.67;;;;;;;14.67;43.48;99465.75;6593551;27;20466;-83
2024/04/19 14:22:28;;;;;;;3.55;2.47;;;;;;;14.66;44.95;99475.44;6592779;26;20013;-82
2024/04/19 14:25:29;;;;;;;3.95;2.63;;;;;;;14.86;43.55;99475.47;6592350;26;20025;-81
2024/04/19 14:28:30;;;;;;;3.97;2.90;;;;;;;14.80;43.67;99468.13;6592622;27;19997;-83